TKY91L LPMA-LEVC
Flight info
| Callsign | TKY91L |
|---|---|
| Flight time | 2h 10m |
| Altitude | 34000 |
| Route | DEGUN DCT GIKAR DCT BAROK DCT SVL DCT AMOTA DCT VULPE DCT ALCOL DCT KUKAL DCT BLN DCT ASTRO |
| Aircraft | B738/M-SDE2E3FGHIRWXY/LB1 |
Departure
| Time | 2026-05-08 16:43 |
|---|---|
| Airport | Cristiano Ronaldo International Airport (LPMA) |
Arrival
| Time | 2026-05-08 18:53 |
|---|---|
| Airport | Valencia Airport (LEVC) |
| Time | Latitude | Longitude | Altitude | Speed | Heading |
|---|---|---|---|---|---|
| 2026-05-08 16:16 | 32.69514 | -16.77441 | 175 ft | 0 kts | 138° |
| 2026-05-08 16:35 | 32.69517 | -16.77444 | 175 ft | 3 kts | 138° |
| 2026-05-08 16:35 | 32.69538 | -16.77465 | 175 ft | 4 kts | 139° |
| 2026-05-08 16:35 | 32.69556 | -16.77488 | 175 ft | 4 kts | 117° |
| 2026-05-08 16:35 | 32.69561 | -16.77516 | 175 ft | 4 kts | 69° |
| 2026-05-08 16:36 | 32.69555 | -16.77529 | 175 ft | 1 kts | 46° |
| 2026-05-08 16:38 | 32.69566 | -16.77516 | 175 ft | 7 kts | 46° |
| 2026-05-08 16:38 | 32.69611 | -16.77459 | 175 ft | 11 kts | 45° |
| 2026-05-08 16:38 | 32.69677 | -16.77379 | 175 ft | 16 kts | 45° |
| 2026-05-08 16:38 | 32.69759 | -16.77276 | 175 ft | 14 kts | 46° |
| 2026-05-08 16:39 | 32.69820 | -16.77202 | 175 ft | 11 kts | 43° |
| 2026-05-08 16:39 | 32.69891 | -16.77178 | 175 ft | 11 kts | 1° |
| 2026-05-08 16:39 | 32.69964 | -16.77180 | 175 ft | 10 kts | 356° |
| 2026-05-08 16:39 | 32.70031 | -16.77162 | 175 ft | 12 kts | 37° |
| 2026-05-08 16:40 | 32.70133 | -16.77045 | 175 ft | 28 kts | 43° |
| 2026-05-08 16:40 | 32.70287 | -16.76864 | 175 ft | 28 kts | 45° |
| 2026-05-08 16:40 | 32.70309 | -16.76747 | 175 ft | 0 kts | 97° |
| 2026-05-08 16:40 | 32.70320 | -16.76724 | 176 ft | 13 kts | 57° |
| 2026-05-08 16:41 | 32.70445 | -16.76662 | 175 ft | 20 kts | 28° |
| 2026-05-08 16:41 | 32.70493 | -16.76586 | 175 ft | 2 kts | 41° |
| 2026-05-08 16:41 | 32.70502 | -16.76601 | 175 ft | 3 kts | 293° |
| 2026-05-08 16:42 | 32.70483 | -16.76634 | 175 ft | 18 kts | 229° |
| 2026-05-08 16:42 | 32.70203 | -16.76960 | 175 ft | 93 kts | 224° |
| 2026-05-08 16:42 | 32.69581 | -16.77681 | 195 ft | 154 kts | 224° |
| 2026-05-08 16:42 | 32.68733 | -16.78636 | 683 ft | 174 kts | 218° |
| 2026-05-08 16:43 | 32.67531 | -16.79189 | 1117 ft | 208 kts | 198° |
| 2026-05-08 16:43 | 32.65995 | -16.79222 | 1675 ft | 229 kts | 182° |
| 2026-05-08 16:43 | 32.64381 | -16.78876 | 2333 ft | 239 kts | 176° |
| 2026-05-08 16:43 | 32.62672 | -16.78495 | 2638 ft | 262 kts | 178° |
| 2026-05-08 16:44 | 32.60830 | -16.78129 | 3320 ft | 270 kts | 178° |
| 2026-05-08 16:44 | 32.58970 | -16.77768 | 4223 ft | 273 kts | 176° |
| 2026-05-08 16:44 | 32.57186 | -16.76868 | 5024 ft | 291 kts | 146° |
| 2026-05-08 16:44 | 32.55884 | -16.74984 | 5823 ft | 304 kts | 119° |
| 2026-05-08 16:45 | 32.55308 | -16.72589 | 6569 ft | 310 kts | 93° |
| 2026-05-08 16:45 | 32.55584 | -16.70074 | 7334 ft | 309 kts | 66° |
| 2026-05-08 16:45 | 32.56621 | -16.67864 | 8070 ft | 307 kts | 50° |
| 2026-05-08 16:45 | 32.57891 | -16.65812 | 8832 ft | 310 kts | 48° |
| 2026-05-08 16:46 | 32.59200 | -16.63756 | 9579 ft | 315 kts | 47° |
| 2026-05-08 16:46 | 32.60524 | -16.61656 | 10197 ft | 324 kts | 48° |
| 2026-05-08 16:46 | 32.61911 | -16.59425 | 10386 ft | 348 kts | 49° |
| 2026-05-08 16:46 | 32.63371 | -16.57045 | 10729 ft | 364 kts | 49° |
| 2026-05-08 16:47 | 32.64872 | -16.54597 | 11349 ft | 369 kts | 47° |
| 2026-05-08 16:47 | 32.66567 | -16.52321 | 12059 ft | 368 kts | 39° |
| 2026-05-08 16:47 | 32.68416 | -16.50199 | 12746 ft | 371 kts | 37° |
| 2026-05-08 16:47 | 32.70323 | -16.48108 | 13433 ft | 376 kts | 36° |
| 2026-05-08 16:48 | 32.72260 | -16.45995 | 14053 ft | 380 kts | 37° |
| 2026-05-08 16:48 | 32.74208 | -16.43847 | 14713 ft | 383 kts | 37° |
| 2026-05-08 16:48 | 32.76157 | -16.41672 | 15364 ft | 385 kts | 37° |
| 2026-05-08 16:48 | 32.78111 | -16.39468 | 15980 ft | 389 kts | 37° |
| 2026-05-08 16:49 | 32.80080 | -16.37234 | 16600 ft | 393 kts | 37° |
| 2026-05-08 16:49 | 32.82061 | -16.34975 | 17211 ft | 396 kts | 37° |
| 2026-05-08 16:49 | 32.84067 | -16.32683 | 17714 ft | 404 kts | 38° |
| 2026-05-08 16:49 | 32.86075 | -16.30386 | 18262 ft | 408 kts | 38° |
| 2026-05-08 16:50 | 32.88125 | -16.28034 | 18866 ft | 410 kts | 38° |
| 2026-05-08 16:50 | 32.90176 | -16.25679 | 19441 ft | 411 kts | 38° |
| 2026-05-08 16:50 | 32.92242 | -16.23305 | 19994 ft | 414 kts | 38° |
| 2026-05-08 16:50 | 32.94317 | -16.20921 | 20518 ft | 416 kts | 38° |
| 2026-05-08 16:51 | 32.96407 | -16.18517 | 21051 ft | 419 kts | 38° |
| 2026-05-08 16:51 | 32.98509 | -16.16100 | 21575 ft | 421 kts | 38° |
| 2026-05-08 16:51 | 33.00628 | -16.13661 | 22065 ft | 425 kts | 38° |
| 2026-05-08 16:51 | 33.02757 | -16.11209 | 22564 ft | 427 kts | 38° |
| 2026-05-08 16:52 | 33.04902 | -16.08737 | 23052 ft | 430 kts | 38° |
| 2026-05-08 16:52 | 33.07054 | -16.06254 | 23525 ft | 432 kts | 38° |
| 2026-05-08 16:52 | 33.09224 | -16.03749 | 23889 ft | 436 kts | 38° |
| 2026-05-08 16:52 | 33.11416 | -16.01219 | 24217 ft | 440 kts | 38° |
| 2026-05-08 16:53 | 33.15889 | -15.96051 | 24689 ft | 455 kts | 39° |
| 2026-05-08 16:53 | 33.18171 | -15.93409 | 25052 ft | 458 kts | 39° |
| 2026-05-08 16:53 | 33.20449 | -15.90765 | 25584 ft | 456 kts | 39° |
| 2026-05-08 16:54 | 33.22730 | -15.88117 | 25934 ft | 459 kts | 39° |
| 2026-05-08 16:54 | 33.25007 | -15.85475 | 26185 ft | 465 kts | 39° |
| 2026-05-08 16:54 | 33.27336 | -15.82771 | 26471 ft | 469 kts | 39° |
| 2026-05-08 16:54 | 33.29684 | -15.80042 | 26791 ft | 472 kts | 39° |
| 2026-05-08 16:55 | 33.32041 | -15.77299 | 27104 ft | 475 kts | 39° |
| 2026-05-08 16:55 | 33.34421 | -15.74528 | 27403 ft | 478 kts | 39° |
| 2026-05-08 16:55 | 33.36808 | -15.71745 | 27684 ft | 482 kts | 39° |
| 2026-05-08 16:55 | 33.39224 | -15.68929 | 27972 ft | 485 kts | 39° |
| 2026-05-08 16:56 | 33.41627 | -15.66074 | 28250 ft | 490 kts | 43° |
| 2026-05-08 16:56 | 33.43618 | -15.62697 | 28465 ft | 501 kts | 58° |
| 2026-05-08 16:56 | 33.45331 | -15.59030 | 28596 ft | 508 kts | 59° |
| 2026-05-08 16:56 | 33.47015 | -15.55284 | 28844 ft | 512 kts | 60° |
| 2026-05-08 16:57 | 33.48703 | -15.51508 | 29166 ft | 514 kts | 60° |
| 2026-05-08 16:57 | 33.50385 | -15.47779 | 29516 ft | 515 kts | 59° |
| 2026-05-08 16:57 | 33.52111 | -15.44003 | 29762 ft | 518 kts | 59° |
| 2026-05-08 16:57 | 33.53862 | -15.40212 | 29987 ft | 521 kts | 59° |
| 2026-05-08 16:58 | 33.55628 | -15.36414 | 30262 ft | 521 kts | 59° |
| 2026-05-08 16:58 | 33.57394 | -15.32624 | 30626 ft | 519 kts | 59° |
| 2026-05-08 16:58 | 33.59150 | -15.28855 | 31016 ft | 517 kts | 59° |
| 2026-05-08 16:58 | 33.60900 | -15.25095 | 31347 ft | 516 kts | 59° |
| 2026-05-08 16:59 | 33.62645 | -15.21338 | 31629 ft | 516 kts | 58° |
| 2026-05-08 16:59 | 33.64390 | -15.17578 | 31917 ft | 516 kts | 59° |
| 2026-05-08 16:59 | 33.66133 | -15.13813 | 32229 ft | 515 kts | 58° |
| 2026-05-08 16:59 | 33.67871 | -15.10054 | 32544 ft | 514 kts | 58° |
| 2026-05-08 17:00 | 33.69604 | -15.06301 | 32851 ft | 513 kts | 58° |
| 2026-05-08 17:00 | 33.71335 | -15.02549 | 33114 ft | 513 kts | 58° |
| 2026-05-08 17:00 | 33.73043 | -14.98845 | 33330 ft | 514 kts | 58° |
| 2026-05-08 17:00 | 33.74778 | -14.95077 | 33551 ft | 515 kts | 58° |
| 2026-05-08 17:01 | 33.76511 | -14.91310 | 33788 ft | 515 kts | 59° |
| 2026-05-08 17:01 | 33.78249 | -14.87530 | 33792 ft | 519 kts | 59° |
| 2026-05-08 17:01 | 33.81738 | -14.79923 | 33801 ft | 517 kts | 59° |
| 2026-05-08 17:02 | 33.85195 | -14.72367 | 33834 ft | 514 kts | 59° |
| 2026-05-08 17:02 | 33.88635 | -14.64837 | 33801 ft | 512 kts | 59° |
| 2026-05-08 17:03 | 33.92052 | -14.57339 | 33772 ft | 510 kts | 59° |
| 2026-05-08 17:03 | 33.95471 | -14.49826 | 33798 ft | 515 kts | 60° |
| 2026-05-08 17:04 | 33.98937 | -14.42189 | 33799 ft | 521 kts | 60° |
| 2026-05-08 17:04 | 34.02414 | -14.34510 | 33794 ft | 522 kts | 60° |
| 2026-05-08 17:05 | 34.05893 | -14.26809 | 33791 ft | 523 kts | 60° |
| 2026-05-08 17:05 | 34.09363 | -14.19111 | 33789 ft | 522 kts | 61° |
| 2026-05-08 17:06 | 34.12827 | -14.11409 | 33787 ft | 521 kts | 61° |
| 2026-05-08 17:06 | 34.16277 | -14.03726 | 33793 ft | 520 kts | 61° |
| 2026-05-08 17:07 | 34.19783 | -13.96152 | 33812 ft | 519 kts | 59° |
| 2026-05-08 17:07 | 34.23398 | -13.88609 | 33790 ft | 518 kts | 59° |
| 2026-05-08 17:08 | 34.27006 | -13.81064 | 33770 ft | 517 kts | 60° |
| 2026-05-08 17:08 | 34.30568 | -13.73552 | 33790 ft | 517 kts | 60° |
| 2026-05-08 17:09 | 34.34132 | -13.65995 | 33786 ft | 517 kts | 60° |
| 2026-05-08 17:09 | 34.37694 | -13.58421 | 33789 ft | 518 kts | 60° |
| 2026-05-08 17:10 | 34.41256 | -13.50833 | 33782 ft | 519 kts | 60° |
| 2026-05-08 17:10 | 34.44824 | -13.43217 | 33773 ft | 520 kts | 61° |
| 2026-05-08 17:11 | 34.48392 | -13.35584 | 33788 ft | 521 kts | 61° |
| 2026-05-08 17:11 | 34.51943 | -13.27973 | 33817 ft | 523 kts | 61° |
| 2026-05-08 17:12 | 34.55531 | -13.20264 | 33782 ft | 525 kts | 61° |
| 2026-05-08 17:12 | 34.59117 | -13.12544 | 33760 ft | 525 kts | 62° |
| 2026-05-08 17:13 | 34.62696 | -13.04820 | 33780 ft | 525 kts | 62° |
| 2026-05-08 17:13 | 34.66271 | -12.97087 | 33770 ft | 525 kts | 62° |
| 2026-05-08 17:14 | 34.69845 | -12.89342 | 33778 ft | 525 kts | 62° |
| 2026-05-08 17:14 | 34.73415 | -12.81586 | 33776 ft | 525 kts | 62° |
| 2026-05-08 17:15 | 34.76951 | -12.73886 | 33744 ft | 524 kts | 63° |
| 2026-05-08 17:15 | 34.80498 | -12.66146 | 33770 ft | 524 kts | 63° |
| 2026-05-08 17:16 | 34.84047 | -12.58384 | 33780 ft | 524 kts | 63° |
| 2026-05-08 17:16 | 34.87592 | -12.50613 | 33783 ft | 525 kts | 63° |
| 2026-05-08 17:17 | 34.91135 | -12.42829 | 33778 ft | 525 kts | 63° |
| 2026-05-08 17:17 | 34.94671 | -12.35044 | 33770 ft | 524 kts | 63° |
| 2026-05-08 17:18 | 34.98169 | -12.27324 | 33773 ft | 523 kts | 63° |
| 2026-05-08 17:18 | 35.01683 | -12.19551 | 33778 ft | 523 kts | 64° |
| 2026-05-08 17:19 | 35.05193 | -12.11770 | 33776 ft | 523 kts | 64° |
| 2026-05-08 17:19 | 35.08699 | -12.03980 | 33725 ft | 523 kts | 64° |
| 2026-05-08 17:20 | 35.11611 | -11.97496 | 33779 ft | 522 kts | 64° |
| 2026-05-08 17:20 | 35.15101 | -11.89708 | 33777 ft | 522 kts | 64° |
| 2026-05-08 17:21 | 35.18591 | -11.81901 | 33816 ft | 523 kts | 64° |
| 2026-05-08 17:21 | 35.22083 | -11.74073 | 33787 ft | 524 kts | 64° |
| 2026-05-08 17:22 | 35.25573 | -11.66232 | 33779 ft | 524 kts | 64° |
| 2026-05-08 17:22 | 35.29053 | -11.58397 | 33788 ft | 524 kts | 65° |
| 2026-05-08 17:23 | 35.32504 | -11.50608 | 33783 ft | 523 kts | 65° |
| 2026-05-08 17:23 | 35.35971 | -11.42763 | 33783 ft | 523 kts | 65° |
| 2026-05-08 17:24 | 35.39428 | -11.34925 | 33779 ft | 523 kts | 65° |
| 2026-05-08 17:24 | 35.42879 | -11.27080 | 33750 ft | 522 kts | 65° |
| 2026-05-08 17:25 | 35.46318 | -11.19247 | 33780 ft | 521 kts | 65° |
| 2026-05-08 17:25 | 35.49749 | -11.11411 | 33800 ft | 521 kts | 65° |
| 2026-05-08 17:26 | 35.53179 | -11.03560 | 33791 ft | 522 kts | 65° |
| 2026-05-08 17:26 | 35.56610 | -10.95688 | 33790 ft | 523 kts | 65° |
| 2026-05-08 17:27 | 35.60039 | -10.87804 | 33781 ft | 523 kts | 66° |
| 2026-05-08 17:27 | 35.63469 | -10.79895 | 33797 ft | 526 kts | 66° |
| 2026-05-08 17:28 | 35.66913 | -10.71935 | 33805 ft | 528 kts | 66° |
| 2026-05-08 17:28 | 35.70370 | -10.63929 | 33802 ft | 531 kts | 66° |
| 2026-05-08 17:29 | 35.73832 | -10.55892 | 33779 ft | 532 kts | 66° |
| 2026-05-08 17:29 | 35.77277 | -10.47875 | 33805 ft | 534 kts | 66° |
| 2026-05-08 17:30 | 35.80747 | -10.39780 | 33825 ft | 535 kts | 66° |
| 2026-05-08 17:30 | 35.84226 | -10.31645 | 33807 ft | 536 kts | 66° |
| 2026-05-08 17:31 | 35.87694 | -10.23515 | 33812 ft | 535 kts | 66° |
| 2026-05-08 17:31 | 35.91149 | -10.15396 | 33791 ft | 533 kts | 67° |
| 2026-05-08 17:32 | 35.94589 | -10.07288 | 33815 ft | 533 kts | 67° |
| 2026-05-08 17:32 | 35.97957 | -9.99159 | 33820 ft | 531 kts | 70° |
| 2026-05-08 17:33 | 36.01017 | -9.90868 | 33830 ft | 530 kts | 72° |
| 2026-05-08 17:33 | 36.03968 | -9.82581 | 33772 ft | 531 kts | 72° |
| 2026-05-08 17:34 | 36.06967 | -9.74237 | 33825 ft | 532 kts | 72° |
| 2026-05-08 17:34 | 36.09999 | -9.65876 | 33840 ft | 535 kts | 72° |
| 2026-05-08 17:35 | 36.13053 | -9.57462 | 33867 ft | 538 kts | 72° |
| 2026-05-08 17:35 | 36.16125 | -9.48982 | 33844 ft | 540 kts | 72° |
| 2026-05-08 17:36 | 36.19186 | -9.40503 | 33805 ft | 540 kts | 72° |
| 2026-05-08 17:36 | 36.22244 | -9.32006 | 33830 ft | 540 kts | 72° |
| 2026-05-08 17:37 | 36.25273 | -9.23560 | 33851 ft | 540 kts | 73° |
| 2026-05-08 17:37 | 36.28315 | -9.15058 | 33845 ft | 540 kts | 73° |
| 2026-05-08 17:38 | 36.31352 | -9.06545 | 33805 ft | 539 kts | 73° |
| 2026-05-08 17:38 | 36.34374 | -8.98051 | 33844 ft | 538 kts | 73° |
| 2026-05-08 17:39 | 36.37390 | -8.89551 | 33857 ft | 538 kts | 73° |
| 2026-05-08 17:39 | 36.40396 | -8.81055 | 33854 ft | 537 kts | 73° |
| 2026-05-08 17:40 | 36.43397 | -8.72547 | 33884 ft | 537 kts | 73° |
| 2026-05-08 17:40 | 36.46388 | -8.64046 | 33864 ft | 537 kts | 73° |
| 2026-05-08 17:41 | 36.49370 | -8.55547 | 33863 ft | 536 kts | 73° |
| 2026-05-08 17:41 | 36.52346 | -8.47042 | 33874 ft | 536 kts | 73° |
| 2026-05-08 17:42 | 36.55294 | -8.38593 | 33869 ft | 536 kts | 73° |
| 2026-05-08 17:42 | 36.58254 | -8.30087 | 33842 ft | 535 kts | 73° |
| 2026-05-08 17:43 | 36.61205 | -8.21583 | 33867 ft | 535 kts | 73° |
| 2026-05-08 17:43 | 36.64146 | -8.13080 | 33878 ft | 535 kts | 73° |
| 2026-05-08 17:44 | 36.67086 | -8.04558 | 33883 ft | 535 kts | 73° |
| 2026-05-08 17:44 | 36.70021 | -7.96025 | 33874 ft | 536 kts | 73° |
| 2026-05-08 17:45 | 36.72950 | -7.87486 | 33879 ft | 536 kts | 73° |
| 2026-05-08 17:45 | 36.75880 | -7.78924 | 33874 ft | 537 kts | 73° |
| 2026-05-08 17:46 | 36.78801 | -7.70361 | 33877 ft | 537 kts | 73° |
| 2026-05-08 17:46 | 36.81719 | -7.61780 | 33876 ft | 537 kts | 74° |
| 2026-05-08 17:47 | 36.84629 | -7.53202 | 33887 ft | 536 kts | 73° |
| 2026-05-08 17:47 | 36.87041 | -7.46071 | 33881 ft | 536 kts | 73° |
| 2026-05-08 17:48 | 36.90423 | -7.36043 | 33881 ft | 536 kts | 73° |
| 2026-05-08 17:48 | 36.93315 | -7.27441 | 33876 ft | 536 kts | 73° |
| 2026-05-08 17:49 | 36.96185 | -7.18879 | 33845 ft | 536 kts | 73° |
| 2026-05-08 17:49 | 36.99060 | -7.10282 | 33877 ft | 536 kts | 73° |
| 2026-05-08 17:50 | 37.01928 | -7.01675 | 33883 ft | 536 kts | 73° |
| 2026-05-08 17:50 | 37.04790 | -6.93063 | 33880 ft | 536 kts | 73° |
| 2026-05-08 17:51 | 37.07653 | -6.84423 | 33878 ft | 537 kts | 73° |
| 2026-05-08 17:51 | 37.10504 | -6.75793 | 33875 ft | 536 kts | 73° |
| 2026-05-08 17:52 | 37.13332 | -6.67210 | 33873 ft | 536 kts | 73° |
| 2026-05-08 17:53 | 37.17609 | -6.54175 | 33879 ft | 537 kts | 73° |
| 2026-05-08 17:53 | 37.20422 | -6.45571 | 33833 ft | 537 kts | 73° |
| 2026-05-08 17:54 | 37.23249 | -6.36902 | 33858 ft | 536 kts | 73° |
| 2026-05-08 17:54 | 37.26066 | -6.28235 | 33862 ft | 536 kts | 73° |
| 2026-05-08 17:55 | 37.28877 | -6.19559 | 33859 ft | 536 kts | 73° |
| 2026-05-08 17:55 | 37.31683 | -6.10875 | 33857 ft | 536 kts | 73° |
| 2026-05-08 17:56 | 37.34481 | -6.02187 | 33852 ft | 536 kts | 73° |
| 2026-05-08 17:56 | 37.37273 | -5.93494 | 33855 ft | 536 kts | 73° |
| 2026-05-08 17:57 | 37.40038 | -5.84856 | 33856 ft | 536 kts | 73° |
| 2026-05-08 17:57 | 37.42817 | -5.76153 | 33859 ft | 535 kts | 73° |
| 2026-05-08 17:58 | 37.45753 | -5.67521 | 33832 ft | 536 kts | 70° |
| 2026-05-08 17:58 | 37.48820 | -5.58968 | 33835 ft | 536 kts | 70° |
| 2026-05-08 17:59 | 37.51850 | -5.50403 | 33850 ft | 535 kts | 70° |
| 2026-05-08 17:59 | 37.54842 | -5.41812 | 33845 ft | 535 kts | 71° |
| 2026-05-08 18:00 | 37.57828 | -5.33203 | 33815 ft | 535 kts | 71° |
| 2026-05-08 18:00 | 37.62269 | -5.20367 | 33853 ft | 534 kts | 71° |
| 2026-05-08 18:01 | 37.65223 | -5.11748 | 33864 ft | 534 kts | 71° |
| 2026-05-08 18:01 | 37.68169 | -5.03123 | 33852 ft | 535 kts | 71° |
| 2026-05-08 18:02 | 37.70616 | -4.95946 | 33858 ft | 535 kts | 71° |
| 2026-05-08 18:02 | 37.74031 | -4.85906 | 33861 ft | 534 kts | 70° |
| 2026-05-08 18:03 | 37.76957 | -4.77283 | 33846 ft | 534 kts | 70° |
| 2026-05-08 18:03 | 37.79900 | -4.68662 | 33859 ft | 534 kts | 70° |
| 2026-05-08 18:04 | 37.82845 | -4.60024 | 33857 ft | 535 kts | 70° |
| 2026-05-08 18:04 | 37.85782 | -4.51369 | 33856 ft | 534 kts | 70° |
| 2026-05-08 18:05 | 37.88706 | -4.42765 | 33871 ft | 535 kts | 70° |
| 2026-05-08 18:05 | 37.91619 | -4.34084 | 33871 ft | 535 kts | 70° |
| 2026-05-08 18:06 | 37.94518 | -4.25400 | 33863 ft | 536 kts | 71° |
| 2026-05-08 18:06 | 37.97419 | -4.16695 | 33866 ft | 536 kts | 71° |
| 2026-05-08 18:07 | 37.99827 | -4.09457 | 33858 ft | 536 kts | 71° |
| 2026-05-08 18:07 | 38.03208 | -3.99264 | 33869 ft | 536 kts | 71° |
| 2026-05-08 18:08 | 38.05608 | -3.92005 | 33877 ft | 536 kts | 71° |
| 2026-05-08 18:08 | 38.08487 | -3.83272 | 33864 ft | 537 kts | 71° |
| 2026-05-08 18:09 | 38.11360 | -3.74532 | 33859 ft | 536 kts | 70° |
| 2026-05-08 18:09 | 38.14211 | -3.65835 | 33902 ft | 536 kts | 71° |
| 2026-05-08 18:10 | 38.17235 | -3.57092 | 33881 ft | 537 kts | 67° |
| 2026-05-08 18:10 | 38.20512 | -3.48603 | 33880 ft | 538 kts | 66° |
| 2026-05-08 18:11 | 38.23851 | -3.40060 | 33865 ft | 538 kts | 65° |
| 2026-05-08 18:11 | 38.27117 | -3.31551 | 33884 ft | 538 kts | 66° |
| 2026-05-08 18:12 | 38.30369 | -3.22968 | 33878 ft | 538 kts | 66° |
| 2026-05-08 18:12 | 38.33604 | -3.14393 | 33884 ft | 535 kts | 66° |
| 2026-05-08 18:13 | 38.35206 | -3.10141 | 33526 ft | 531 kts | 66° |
| 2026-05-08 18:13 | 38.36800 | -3.05908 | 33157 ft | 525 kts | 66° |
| 2026-05-08 18:13 | 38.38373 | -3.01726 | 32722 ft | 521 kts | 66° |
| 2026-05-08 18:13 | 38.39931 | -2.97578 | 32347 ft | 517 kts | 66° |
| 2026-05-08 18:14 | 38.41475 | -2.93461 | 31945 ft | 513 kts | 66° |
| 2026-05-08 18:14 | 38.43008 | -2.89367 | 31567 ft | 509 kts | 66° |
| 2026-05-08 18:14 | 38.44530 | -2.85296 | 31168 ft | 506 kts | 65° |
| 2026-05-08 18:14 | 38.46023 | -2.81300 | 30791 ft | 503 kts | 65° |
| 2026-05-08 18:15 | 38.47521 | -2.77283 | 30410 ft | 499 kts | 65° |
| 2026-05-08 18:15 | 38.49008 | -2.73291 | 30043 ft | 496 kts | 65° |
| 2026-05-08 18:15 | 38.50484 | -2.69321 | 29594 ft | 493 kts | 65° |
| 2026-05-08 18:15 | 38.51947 | -2.65384 | 29158 ft | 489 kts | 65° |
| 2026-05-08 18:16 | 38.53397 | -2.61478 | 28789 ft | 484 kts | 65° |
| 2026-05-08 18:16 | 38.54835 | -2.57598 | 28391 ft | 480 kts | 65° |
| 2026-05-08 18:16 | 38.56252 | -2.53767 | 28015 ft | 475 kts | 65° |
| 2026-05-08 18:16 | 38.57661 | -2.49961 | 27594 ft | 471 kts | 65° |
| 2026-05-08 18:17 | 38.59056 | -2.46195 | 27255 ft | 466 kts | 65° |
| 2026-05-08 18:17 | 38.60434 | -2.42455 | 26858 ft | 463 kts | 66° |
| 2026-05-08 18:17 | 38.61803 | -2.38734 | 26469 ft | 460 kts | 66° |
| 2026-05-08 18:17 | 38.63159 | -2.35043 | 26104 ft | 456 kts | 66° |
| 2026-05-08 18:18 | 38.64506 | -2.31373 | 25714 ft | 453 kts | 66° |
| 2026-05-08 18:18 | 38.65837 | -2.27743 | 25324 ft | 449 kts | 66° |
| 2026-05-08 18:18 | 38.67157 | -2.24140 | 24988 ft | 445 kts | 66° |
| 2026-05-08 18:18 | 38.68466 | -2.20562 | 24617 ft | 442 kts | 66° |
| 2026-05-08 18:19 | 38.69765 | -2.17011 | 24250 ft | 439 kts | 66° |
| 2026-05-08 18:19 | 38.71036 | -2.13528 | 23901 ft | 436 kts | 66° |
| 2026-05-08 18:19 | 38.72315 | -2.10022 | 23528 ft | 433 kts | 67° |
| 2026-05-08 18:19 | 38.73586 | -2.06534 | 23095 ft | 429 kts | 67° |
| 2026-05-08 18:20 | 38.74831 | -2.03115 | 22706 ft | 418 kts | 67° |
| 2026-05-08 18:20 | 38.76046 | -1.99773 | 22355 ft | 410 kts | 67° |
| 2026-05-08 18:20 | 38.77246 | -1.96467 | 22001 ft | 406 kts | 67° |
| 2026-05-08 18:20 | 38.78432 | -1.93195 | 21647 ft | 404 kts | 67° |
| 2026-05-08 18:21 | 38.79609 | -1.89945 | 21278 ft | 401 kts | 67° |
| 2026-05-08 18:21 | 38.80776 | -1.86719 | 20978 ft | 397 kts | 67° |
| 2026-05-08 18:21 | 38.81935 | -1.83513 | 20631 ft | 395 kts | 67° |
| 2026-05-08 18:21 | 38.83086 | -1.80324 | 20288 ft | 392 kts | 67° |
| 2026-05-08 18:22 | 38.84228 | -1.77156 | 19947 ft | 390 kts | 67° |
| 2026-05-08 18:22 | 38.85364 | -1.74004 | 19609 ft | 388 kts | 67° |
| 2026-05-08 18:22 | 38.86496 | -1.70858 | 19268 ft | 386 kts | 67° |
| 2026-05-08 18:22 | 38.87620 | -1.67729 | 18933 ft | 385 kts | 67° |
| 2026-05-08 18:23 | 38.88723 | -1.64659 | 18608 ft | 384 kts | 67° |
| 2026-05-08 18:23 | 38.89839 | -1.61548 | 18257 ft | 383 kts | 67° |
| 2026-05-08 18:23 | 38.90952 | -1.58443 | 17872 ft | 382 kts | 67° |
| 2026-05-08 18:23 | 38.92059 | -1.55348 | 17499 ft | 380 kts | 67° |
| 2026-05-08 18:24 | 38.93157 | -1.52278 | 17125 ft | 378 kts | 66° |
| 2026-05-08 18:24 | 38.94250 | -1.49220 | 16761 ft | 376 kts | 67° |
| 2026-05-08 18:24 | 38.95334 | -1.46180 | 16417 ft | 374 kts | 67° |
| 2026-05-08 18:24 | 38.96416 | -1.43145 | 16073 ft | 371 kts | 66° |
| 2026-05-08 18:25 | 38.97489 | -1.40134 | 15749 ft | 369 kts | 66° |
| 2026-05-08 18:25 | 38.98540 | -1.37179 | 15418 ft | 367 kts | 66° |
| 2026-05-08 18:25 | 38.99613 | -1.34161 | 15087 ft | 365 kts | 66° |
| 2026-05-08 18:25 | 39.00651 | -1.31239 | 14767 ft | 363 kts | 66° |
| 2026-05-08 18:26 | 39.01698 | -1.28287 | 14452 ft | 361 kts | 66° |
| 2026-05-08 18:26 | 39.02821 | -1.25405 | 14123 ft | 360 kts | 57° |
| 2026-05-08 18:26 | 39.04280 | -1.22810 | 13901 ft | 356 kts | 51° |
| 2026-05-08 18:26 | 39.05816 | -1.20312 | 13677 ft | 355 kts | 50° |
| 2026-05-08 18:27 | 39.07361 | -1.17832 | 13427 ft | 355 kts | 50° |
| 2026-05-08 18:27 | 39.08382 | -1.16181 | 13260 ft | 355 kts | 51° |
| 2026-05-08 18:27 | 39.10395 | -1.12888 | 12979 ft | 351 kts | 51° |
| 2026-05-08 18:27 | 39.11889 | -1.10416 | 12724 ft | 349 kts | 51° |
| 2026-05-08 18:28 | 39.13368 | -1.07951 | 12485 ft | 346 kts | 51° |
| 2026-05-08 18:28 | 39.14825 | -1.05511 | 12231 ft | 341 kts | 52° |
| 2026-05-08 18:28 | 39.16267 | -1.03091 | 11910 ft | 339 kts | 51° |
| 2026-05-08 18:28 | 39.17695 | -1.00690 | 11583 ft | 337 kts | 52° |
| 2026-05-08 18:29 | 39.19117 | -0.98298 | 11276 ft | 334 kts | 52° |
| 2026-05-08 18:29 | 39.20527 | -0.95925 | 10941 ft | 332 kts | 51° |
| 2026-05-08 18:29 | 39.21928 | -0.93566 | 10625 ft | 330 kts | 51° |
| 2026-05-08 18:29 | 39.23320 | -0.91219 | 10324 ft | 328 kts | 51° |
| 2026-05-08 18:30 | 39.24687 | -0.88912 | 10192 ft | 319 kts | 52° |
| 2026-05-08 18:30 | 39.26017 | -0.86665 | 10040 ft | 309 kts | 51° |
| 2026-05-08 18:30 | 39.27299 | -0.84500 | 9858 ft | 300 kts | 51° |
| 2026-05-08 18:30 | 39.28564 | -0.82377 | 9565 ft | 296 kts | 49° |
| 2026-05-08 18:31 | 39.30109 | -0.80783 | 9343 ft | 285 kts | 17° |
| 2026-05-08 18:31 | 39.32014 | -0.80555 | 9082 ft | 272 kts | 342° |
| 2026-05-08 18:31 | 39.33600 | -0.81714 | 8874 ft | 259 kts | 316° |
| 2026-05-08 18:31 | 39.35055 | -0.83087 | 8616 ft | 261 kts | 327° |
| 2026-05-08 18:32 | 39.36713 | -0.84068 | 8356 ft | 262 kts | 337° |
| 2026-05-08 18:32 | 39.38440 | -0.84816 | 8083 ft | 262 kts | 339° |
| 2026-05-08 18:32 | 39.40196 | -0.85464 | 8025 ft | 264 kts | 341° |
| 2026-05-08 18:32 | 39.41993 | -0.86047 | 7986 ft | 265 kts | 345° |
| 2026-05-08 18:33 | 39.43772 | -0.86497 | 7956 ft | 255 kts | 347° |
| 2026-05-08 18:33 | 39.45493 | -0.86794 | 7947 ft | 243 kts | 351° |
| 2026-05-08 18:33 | 39.47175 | -0.86961 | 7984 ft | 243 kts | 355° |
| 2026-05-08 18:33 | 39.48869 | -0.87005 | 7973 ft | 244 kts | 359° |
| 2026-05-08 18:34 | 39.50557 | -0.86925 | 7968 ft | 243 kts | 1° |
| 2026-05-08 18:34 | 39.52227 | -0.86724 | 7972 ft | 245 kts | 5° |
| 2026-05-08 18:34 | 39.53928 | -0.86393 | 7977 ft | 252 kts | 8° |
| 2026-05-08 18:34 | 39.55690 | -0.85916 | 7995 ft | 261 kts | 12° |
| 2026-05-08 18:35 | 39.57447 | -0.85312 | 7979 ft | 260 kts | 14° |
| 2026-05-08 18:35 | 39.59167 | -0.84588 | 7978 ft | 259 kts | 19° |
| 2026-05-08 18:35 | 39.60843 | -0.83724 | 7952 ft | 258 kts | 24° |
| 2026-05-08 18:35 | 39.62213 | -0.82320 | 7764 ft | 249 kts | 59° |
| 2026-05-08 18:36 | 39.62695 | -0.80282 | 7618 ft | 228 kts | 91° |
| 2026-05-08 18:36 | 39.62443 | -0.78326 | 7283 ft | 218 kts | 120° |
| 2026-05-08 18:36 | 39.61484 | -0.76877 | 6886 ft | 211 kts | 141° |
| 2026-05-08 18:36 | 39.60369 | -0.75627 | 6420 ft | 214 kts | 140° |
| 2026-05-08 18:37 | 39.59254 | -0.74356 | 6016 ft | 212 kts | 140° |
| 2026-05-08 18:37 | 39.58275 | -0.72978 | 5579 ft | 213 kts | 118° |
| 2026-05-08 18:37 | 39.57745 | -0.71197 | 5204 ft | 210 kts | 115° |
| 2026-05-08 18:37 | 39.57097 | -0.69516 | 4826 ft | 207 kts | 119° |
| 2026-05-08 18:38 | 39.56435 | -0.67862 | 4466 ft | 205 kts | 117° |
| 2026-05-08 18:38 | 39.55799 | -0.66216 | 4118 ft | 200 kts | 117° |
| 2026-05-08 18:38 | 39.55209 | -0.64671 | 4005 ft | 184 kts | 116° |
| 2026-05-08 18:38 | 39.54651 | -0.63204 | 3706 ft | 178 kts | 116° |
| 2026-05-08 18:39 | 39.54118 | -0.61803 | 3340 ft | 169 kts | 115° |
| 2026-05-08 18:39 | 39.53600 | -0.60441 | 3048 ft | 164 kts | 115° |
| 2026-05-08 18:39 | 39.53076 | -0.59065 | 3053 ft | 175 kts | 114° |
| 2026-05-08 18:39 | 39.52536 | -0.57650 | 3031 ft | 177 kts | 115° |
| 2026-05-08 18:40 | 39.51887 | -0.56302 | 2985 ft | 172 kts | 114° |
| 2026-05-08 18:40 | 39.51788 | -0.54819 | 2952 ft | 172 kts | 71° |
| 2026-05-08 18:40 | 39.52593 | -0.53601 | 3214 ft | 194 kts | 28° |
| 2026-05-08 18:40 | 39.53949 | -0.53275 | 4015 ft | 206 kts | 2° |
| 2026-05-08 18:41 | 39.55470 | -0.53277 | 4452 ft | 228 kts | 1° |
| 2026-05-08 18:41 | 39.57085 | -0.53258 | 4861 ft | 232 kts | 1° |
| 2026-05-08 18:41 | 39.58714 | -0.53229 | 5032 ft | 243 kts | 1° |
| 2026-05-08 18:41 | 39.60461 | -0.53196 | 5023 ft | 253 kts | 1° |
| 2026-05-08 18:42 | 39.62212 | -0.53163 | 5032 ft | 249 kts | 1° |
| 2026-05-08 18:42 | 39.63938 | -0.53130 | 5031 ft | 246 kts | 1° |
| 2026-05-08 18:42 | 39.65653 | -0.53095 | 5026 ft | 246 kts | 1° |
| 2026-05-08 18:42 | 39.67367 | -0.53062 | 5035 ft | 246 kts | 1° |
| 2026-05-08 18:43 | 39.69080 | -0.53035 | 5037 ft | 246 kts | 359° |
| 2026-05-08 18:43 | 39.70756 | -0.53467 | 5035 ft | 246 kts | 340° |
| 2026-05-08 18:43 | 39.72259 | -0.54453 | 4999 ft | 239 kts | 315° |
| 2026-05-08 18:43 | 39.73109 | -0.56216 | 4956 ft | 227 kts | 285° |
| 2026-05-08 18:44 | 39.73194 | -0.58227 | 4531 ft | 226 kts | 255° |
| 2026-05-08 18:44 | 39.72522 | -0.60019 | 4086 ft | 226 kts | 229° |
| 2026-05-08 18:44 | 39.71311 | -0.61401 | 3546 ft | 236 kts | 215° |
| 2026-05-08 18:44 | 39.69969 | -0.62676 | 3443 ft | 241 kts | 214° |
| 2026-05-08 18:45 | 39.68620 | -0.63982 | 3439 ft | 243 kts | 218° |
| 2026-05-08 18:45 | 39.67629 | -0.65758 | 3438 ft | 246 kts | 242° |
| 2026-05-08 18:45 | 39.66838 | -0.67723 | 3420 ft | 245 kts | 239° |
| 2026-05-08 18:45 | 39.66002 | -0.69639 | 3443 ft | 241 kts | 239° |
| 2026-05-08 18:46 | 39.65186 | -0.71461 | 3418 ft | 225 kts | 239° |
| 2026-05-08 18:46 | 39.64432 | -0.73133 | 3407 ft | 205 kts | 238° |
| 2026-05-08 18:46 | 39.63738 | -0.74660 | 3340 ft | 190 kts | 238° |
| 2026-05-08 18:46 | 39.62994 | -0.76088 | 3058 ft | 198 kts | 218° |
| 2026-05-08 18:47 | 39.61791 | -0.76568 | 3008 ft | 174 kts | 168° |
| 2026-05-08 18:47 | 39.60696 | -0.76017 | 3009 ft | 168 kts | 140° |
| 2026-05-08 18:47 | 39.59772 | -0.75018 | 3038 ft | 176 kts | 135° |
| 2026-05-08 18:47 | 39.58860 | -0.73960 | 3019 ft | 179 kts | 134° |
| 2026-05-08 18:48 | 39.58198 | -0.72646 | 3028 ft | 172 kts | 110° |
| 2026-05-08 18:48 | 39.57715 | -0.71236 | 3015 ft | 170 kts | 115° |
| 2026-05-08 18:48 | 39.57178 | -0.69828 | 3029 ft | 178 kts | 115° |
| 2026-05-08 18:48 | 39.56620 | -0.68368 | 2850 ft | 177 kts | 115° |
| 2026-05-08 18:49 | 39.56074 | -0.66941 | 2839 ft | 176 kts | 115° |
| 2026-05-08 18:49 | 39.55539 | -0.65536 | 2801 ft | 172 kts | 115° |
| 2026-05-08 18:49 | 39.55009 | -0.64143 | 2640 ft | 174 kts | 115° |
| 2026-05-08 18:49 | 39.54470 | -0.62728 | 2395 ft | 173 kts | 115° |
| 2026-05-08 18:50 | 39.53954 | -0.61371 | 2162 ft | 163 kts | 116° |
| 2026-05-08 18:50 | 39.53473 | -0.60103 | 2000 ft | 155 kts | 115° |
| 2026-05-08 18:50 | 39.53008 | -0.58890 | 1817 ft | 148 kts | 116° |
| 2026-05-08 18:50 | 39.52707 | -0.58100 | 1668 ft | 142 kts | 115° |
| 2026-05-08 18:51 | 39.52139 | -0.56606 | 1385 ft | 137 kts | 115° |
| 2026-05-08 18:51 | 39.51718 | -0.55499 | 1189 ft | 136 kts | 116° |
| 2026-05-08 18:51 | 39.51304 | -0.54408 | 1028 ft | 134 kts | 116° |
| 2026-05-08 18:51 | 39.50894 | -0.53330 | 865 ft | 133 kts | 114° |
| 2026-05-08 18:52 | 39.50474 | -0.52227 | 682 ft | 140 kts | 114° |
| 2026-05-08 18:52 | 39.50035 | -0.51087 | 463 ft | 141 kts | 116° |
| 2026-05-08 18:52 | 39.49753 | -0.50336 | 332 ft | 138 kts | 112° |
| 2026-05-08 18:52 | 39.49351 | -0.49249 | 222 ft | 125 kts | 115° |
| 2026-05-08 18:53 | 39.49062 | -0.48498 | 211 ft | 63 kts | 116° |
| 2026-05-08 18:53 | 39.48968 | -0.48214 | 201 ft | 17 kts | 90° |
| 2026-05-08 18:53 | 39.48979 | -0.48119 | 207 ft | 10 kts | 78° |
| 2026-05-08 18:53 | 39.48993 | -0.48036 | 208 ft | 9 kts | 76° |
| 2026-05-08 18:54 | 39.49007 | -0.47961 | 208 ft | 8 kts | 77° |
| 2026-05-08 18:54 | 39.49019 | -0.47892 | 201 ft | 8 kts | 76° |
| 2026-05-08 18:54 | 39.49030 | -0.47826 | 201 ft | 8 kts | 78° |
| 2026-05-08 18:54 | 39.49042 | -0.47756 | 204 ft | 9 kts | 77° |
| 2026-05-08 18:55 | 39.49038 | -0.47582 | 203 ft | 6 kts | 113° |
| 2026-05-08 18:55 | 39.49045 | -0.47551 | 196 ft | 5 kts | 71° |
| 2026-05-08 18:55 | 39.49072 | -0.47515 | 200 ft | 3 kts | 44° |
| 2026-05-08 18:56 | 39.49087 | -0.47496 | 194 ft | 4 kts | 44° |
| 2026-05-08 18:56 | 39.49098 | -0.47483 | 194 ft | 1 kts | 43° |
| 2026-05-08 18:56 | 39.49099 | -0.47481 | 194 ft | 0 kts | 44° |
| 2026-05-08 18:56 | 39.49100 | -0.47481 | 194 ft | 0 kts | 44° |